createdAt,value
2019-01-03T00:00:59.684Z,24.70
2019-01-03T00:03:32.830Z,19.90
2019-01-03T00:06:03.023Z,30.67
2019-01-03T00:08:42.383Z,28.43
2019-01-03T00:11:12.495Z,26.90
2019-01-03T00:13:51.851Z,23.07
2019-01-03T00:16:22.023Z,28.67
2019-01-03T00:18:52.086Z,25.30
2019-01-03T00:21:28.223Z,22.07
2019-01-03T00:24:00.969Z,18.43
2019-01-03T00:26:53.569Z,16.10
2019-01-03T00:29:35.992Z,20.57
2019-01-03T00:32:22.928Z,25.67
2019-01-03T00:34:53.068Z,20.70
2019-01-03T00:37:23.136Z,24.40
2019-01-03T00:39:59.287Z,21.00
2019-01-03T00:42:32.203Z,21.13
2019-01-03T00:45:18.619Z,13.20
2019-01-03T00:47:51.360Z,19.97
2019-01-03T00:50:27.203Z,24.77
2019-01-03T00:52:57.259Z,20.57
2019-01-03T00:55:46.416Z,16.33
2019-01-03T00:58:33.004Z,20.17
2019-01-03T01:01:06.123Z,20.37
2019-01-03T01:03:52.237Z,14.07
2019-01-03T01:06:38.625Z,16.40
2019-01-03T01:09:08.767Z,19.30
2019-01-03T01:11:46.343Z,22.33
2019-01-03T01:14:32.299Z,21.70
2019-01-03T01:17:08.428Z,13.83
2019-01-03T01:20:06.749Z,19.17
2019-01-03T01:22:37.098Z,24.97
2019-01-03T01:28:26.267Z,21.13
2019-01-03T01:30:56.370Z,22.57
2019-01-03T01:33:32.682Z,20.90
2019-01-03T01:36:02.919Z,20.60
2019-01-03T01:38:33.140Z,28.70
2019-01-03T01:41:03.341Z,21.67
2019-01-03T01:43:42.354Z,23.83
2019-01-03T01:46:30.330Z,21.20
2019-01-03T01:49:16.748Z,25.10
2019-01-03T01:51:47.936Z,25.87
2019-01-03T01:54:27.290Z,29.17
2019-01-03T01:57:03.505Z,22.63
2019-01-03T01:59:33.654Z,33.13
2019-01-03T02:02:20.146Z,24.87
2019-01-03T02:04:52.965Z,24.80
2019-01-03T02:07:23.084Z,24.30
2019-01-03T02:09:59.314Z,18.93
2019-01-03T02:12:41.410Z,22.77
2019-01-03T02:15:20.161Z,13.87
2019-01-03T02:18:06.303Z,23.83
2019-01-03T02:23:42.248Z,19.57
2019-01-03T02:26:14.761Z,16.77
2019-01-03T02:29:00.865Z,27.30
2019-01-03T02:31:41.254Z,19.23
2019-01-03T02:34:27.641Z,17.50
2019-01-03T02:37:00.843Z,25.87
2019-01-03T02:39:50.256Z,15.90
2019-01-03T02:42:20.445Z,19.90
2019-01-03T02:44:50.542Z,17.27
2019-01-03T02:47:37.250Z,25.40
2019-01-03T02:50:07.976Z,28.17
2019-01-03T02:52:46.994Z,27.90
2019-01-03T02:55:19.795Z,14.60
2019-01-03T02:58:04.496Z,21.97
2019-01-03T03:00:43.529Z,17.33
2019-01-03T03:03:22.657Z,20.73
2019-01-03T03:06:01.892Z,16.70
2019-01-03T03:08:37.812Z,16.60
2019-01-03T03:11:24.451Z,20.90
2019-01-03T03:13:57.426Z,27.50
2019-01-03T03:16:28.750Z,18.10
2019-01-03T03:19:01.542Z,23.17
2019-01-03T03:21:33.849Z,24.47
2019-01-03T03:24:20.222Z,18.97
2019-01-03T03:26:50.604Z,25.77
2019-01-03T03:29:36.623Z,20.10
2019-01-03T03:32:24.946Z,22.73
2019-01-03T03:34:58.084Z,29.13
2019-01-03T03:37:34.172Z,33.03
2019-01-03T03:42:58.184Z,22.37
2019-01-03T03:45:32.251Z,29.33
2019-01-03T03:48:05.513Z,22.17
2019-01-03T03:50:40.306Z,32.17
2019-01-03T03:53:19.381Z,32.07
2019-01-03T03:55:53.628Z,31.33
2019-01-03T03:58:29.522Z,28.57
2019-01-03T04:04:18.311Z,21.17
2019-01-03T04:07:00.673Z,31.53
2019-01-03T04:09:33.472Z,15.33
2019-01-03T04:12:08.946Z,30.93
2019-01-03T04:14:45.802Z,29.47
2019-01-03T04:17:24.889Z,21.23
2019-01-03T04:20:01.394Z,19.50
2019-01-03T04:22:31.596Z,24.67
2019-01-03T04:25:07.798Z,24.17
2019-01-03T04:27:48.056Z,22.23
2019-01-03T04:30:29.940Z,36.93
2019-01-03T04:33:12.325Z,27.67
2019-01-03T04:35:58.771Z,22.30
2019-01-03T04:38:41.064Z,22.93
2019-01-03T04:41:20.133Z,28.97
2019-01-03T04:43:52.938Z,26.93
2019-01-03T04:46:35.099Z,25.23
2019-01-03T04:49:29.523Z,17.90
2019-01-03T04:52:11.883Z,15.73
2019-01-03T04:54:45.034Z,19.07
2019-01-03T04:57:27.416Z,33.40
2019-01-03T05:00:06.241Z,28.37
2019-01-03T05:02:36.657Z,28.03
2019-01-03T05:05:14.116Z,24.03
2019-01-03T05:07:54.229Z,36.10
2019-01-03T05:10:24.420Z,28.87
2019-01-03T05:13:00.740Z,25.47
2019-01-03T05:15:42.736Z,20.53
2019-01-03T05:18:40.361Z,26.40
2019-01-03T05:21:20.491Z,54.73
2019-01-03T05:23:57.710Z,42.03
2019-01-03T05:26:35.459Z,31.97
2019-01-03T05:29:22.062Z,26.17
2019-01-03T05:31:52.553Z,21.13
2019-01-03T05:34:28.368Z,18.47
2019-01-03T05:37:10.603Z,25.23
2019-01-03T05:39:40.670Z,23.80
2019-01-03T05:42:22.796Z,27.07
2019-01-03T05:44:58.459Z,31.63
2019-01-03T05:47:31.491Z,32.93
2019-01-03T05:50:17.830Z,28.80
2019-01-03T05:53:06.442Z,35.73
2019-01-03T05:55:42.327Z,23.90
2019-01-03T05:58:18.321Z,24.83
2019-01-03T06:00:54.019Z,28.57
2019-01-03T06:03:24.169Z,20.97
2019-01-03T06:06:10.722Z,30.47
2019-01-03T06:08:46.949Z,29.30
2019-01-03T06:11:32.396Z,31.47
2019-01-03T06:14:02.780Z,28.83
2019-01-03T06:16:35.994Z,30.53
2019-01-03T06:19:06.147Z,38.80
2019-01-03T06:21:51.385Z,41.10
2019-01-03T06:24:37.996Z,35.03
2019-01-03T06:27:14.263Z,38.20
2019-01-03T06:29:44.350Z,34.40
2019-01-03T06:32:17.167Z,35.83
2019-01-03T06:35:03.444Z,49.40
2019-01-03T06:37:33.589Z,38.23
2019-01-03T06:40:09.443Z,38.50
2019-01-03T06:42:42.226Z,32.17
2019-01-03T06:45:28.526Z,35.90
2019-01-03T06:48:08.100Z,29.40
2019-01-03T06:50:40.941Z,30.27
2019-01-03T06:53:20.162Z,22.23
2019-01-03T06:55:50.231Z,27.17
2019-01-03T06:58:26.041Z,22.10
2019-01-03T07:00:58.599Z,27.60
2019-01-03T07:03:44.504Z,19.77
2019-01-03T07:06:31.063Z,25.83
2019-01-03T07:09:17.657Z,20.90
2019-01-03T07:11:47.720Z,21.40
2019-01-03T07:14:34.408Z,18.40
2019-01-03T07:17:04.683Z,23.53
2019-01-03T07:19:48.405Z,23.13
2019-01-03T07:22:24.577Z,26.23
2019-01-03T07:25:11.132Z,21.00
2019-01-03T07:28:01.055Z,24.27
2019-01-03T07:30:33.222Z,30.30
2019-01-03T07:33:18.791Z,24.23
2019-01-03T07:35:48.863Z,22.80
2019-01-03T07:38:25.591Z,24.33
2019-01-03T07:40:58.731Z,18.13
2019-01-03T07:43:45.285Z,23.23
2019-01-03T07:46:19.099Z,70.07
2019-01-03T07:49:05.331Z,51.20
2019-01-03T07:51:36.601Z,33.30
2019-01-03T07:54:18.744Z,28.67
2019-01-03T07:57:05.338Z,27.80
2019-01-03T07:59:36.428Z,21.70
2019-01-03T08:02:06.541Z,25.13
2019-01-03T08:04:45.527Z,30.40
2019-01-03T08:07:41.077Z,41.47
2019-01-03T08:10:26.588Z,37.90
2019-01-03T08:12:59.431Z,29.37
2019-01-03T08:15:32.402Z,42.80
2019-01-03T08:18:18.785Z,31.97
2019-01-03T08:21:05.156Z,33.87
2019-01-03T08:23:38.530Z,40.23
2019-01-03T08:26:17.607Z,36.43
2019-01-03T08:28:50.593Z,28.63
2019-01-03T08:31:29.492Z,34.67
2019-01-03T08:34:08.796Z,31.20
2019-01-03T08:36:39.166Z,29.13
2019-01-03T08:39:27.581Z,29.77
2019-01-03T08:42:14.009Z,36.30
2019-01-03T08:44:49.674Z,29.40
2019-01-03T08:47:36.705Z,29.60
2019-01-03T08:50:25.990Z,34.23
2019-01-03T08:53:12.199Z,25.70
2019-01-03T08:55:51.279Z,32.60
2019-01-03T08:58:37.632Z,29.77
2019-01-03T09:01:21.659Z,29.90
2019-01-03T09:04:09.847Z,36.37
2019-01-03T09:06:56.259Z,30.43
2019-01-03T09:09:32.451Z,27.07
2019-01-03T09:12:08.235Z,30.73
2019-01-03T09:14:41.335Z,28.70
2019-01-03T09:17:27.783Z,28.60
2019-01-03T09:20:12.850Z,28.73
2019-01-03T09:22:54.702Z,26.40
2019-01-03T09:25:25.691Z,25.80
2019-01-03T09:27:55.827Z,31.20
2019-01-03T09:30:41.823Z,23.43
2019-01-03T09:33:28.246Z,34.20
2019-01-03T09:36:10.339Z,26.33
2019-01-03T09:38:56.896Z,29.73
2019-01-03T09:41:33.032Z,33.60
2019-01-03T09:44:09.612Z,28.73
2019-01-03T09:46:38.150Z,27.73
2019-01-03T09:49:06.593Z,31.87
2019-01-03T09:51:35.141Z,34.90
2019-01-03T09:54:03.707Z,28.00
2019-01-03T09:56:34.253Z,25.50
2019-01-03T09:59:02.734Z,30.00
2019-01-03T10:01:32.189Z,28.03
2019-01-03T10:04:00.578Z,30.90
2019-01-03T10:06:29.004Z,34.23
2019-01-03T10:08:57.514Z,30.70
2019-01-03T10:11:27.292Z,40.87
2019-01-03T10:13:55.726Z,42.60
2019-01-03T10:16:24.232Z,36.97
2019-01-03T10:18:52.708Z,28.60
2019-01-03T10:21:21.365Z,33.87
2019-01-03T10:23:49.924Z,31.13
2019-01-03T10:26:19.384Z,29.13
2019-01-03T10:28:47.812Z,29.40
2019-01-03T10:31:16.229Z,28.07
2019-01-03T10:33:44.819Z,27.87
2019-01-03T10:36:13.245Z,21.93
2019-01-03T10:38:41.692Z,30.03
2019-01-03T10:41:10.123Z,25.93
2019-01-03T10:43:38.552Z,28.70
2019-01-03T10:46:07.055Z,21.27
2019-01-03T10:48:35.509Z,22.63
2019-01-03T10:51:06.639Z,28.13
2019-01-03T10:53:35.102Z,30.83
2019-01-03T10:56:04.546Z,25.10
2019-01-03T10:58:33.069Z,28.43
2019-01-03T11:01:01.641Z,24.67
2019-01-03T11:03:30.061Z,27.50
2019-01-03T11:05:58.472Z,25.27
2019-01-03T11:08:26.946Z,26.20
2019-01-03T11:10:55.372Z,28.60
2019-01-03T11:13:23.828Z,22.27
2019-01-03T11:15:53.425Z,29.83
2019-01-03T11:18:23.903Z,24.13
2019-01-03T11:20:52.336Z,18.93
2019-01-03T11:23:20.780Z,25.70
2019-01-03T11:25:49.187Z,18.30
2019-01-03T11:28:17.600Z,25.67
2019-01-03T11:30:46.040Z,25.10
2019-01-03T11:33:14.447Z,23.73
2019-01-03T11:35:42.876Z,21.00
2019-01-03T11:38:11.292Z,25.03
2019-01-03T11:40:39.733Z,20.20
2019-01-03T11:43:08.165Z,19.47
2019-01-03T11:45:36.624Z,19.40
2019-01-03T11:48:05.027Z,19.73
2019-01-03T11:50:33.498Z,19.13
2019-01-03T11:53:01.988Z,31.70
2019-01-03T11:55:30.415Z,24.77
2019-01-03T11:57:58.830Z,27.17
2019-01-03T12:00:27.290Z,28.40
2019-01-03T12:02:55.779Z,30.40
2019-01-03T12:05:25.647Z,28.47
2019-01-03T12:07:54.123Z,25.17
2019-01-03T12:10:22.579Z,24.40
2019-01-03T12:12:51.279Z,22.10
2019-01-03T12:15:19.716Z,19.67
2019-01-03T12:17:48.118Z,24.07
2019-01-03T12:20:16.551Z,27.40
2019-01-03T12:22:44.955Z,21.60
2019-01-03T12:25:13.406Z,34.30
2019-01-03T12:27:42.932Z,24.73
2019-01-03T12:30:11.371Z,21.30
2019-01-03T12:32:39.796Z,22.67
2019-01-03T12:35:08.641Z,21.73
2019-01-03T12:37:37.069Z,20.37
2019-01-03T12:40:06.977Z,20.53
2019-01-03T12:42:35.412Z,21.27
2019-01-03T12:45:06.607Z,22.20
2019-01-03T12:47:35.020Z,22.57
2019-01-03T12:50:05.233Z,24.83
2019-01-03T12:52:33.770Z,21.83
2019-01-03T12:55:03.870Z,22.83
2019-01-03T12:57:32.279Z,24.10
2019-01-03T13:00:00.734Z,19.90
2019-01-03T13:02:29.164Z,24.63
2019-01-03T13:04:57.593Z,23.47
2019-01-03T13:07:26.091Z,20.23
2019-01-03T13:09:55.309Z,27.30
2019-01-03T13:12:23.778Z,20.70
2019-01-03T13:14:52.260Z,23.13
2019-01-03T13:17:21.147Z,25.00
2019-01-03T13:19:49.556Z,19.27
2019-01-03T13:22:17.988Z,19.83
2019-01-03T13:24:46.415Z,17.97
2019-01-03T13:27:14.902Z,24.83
2019-01-03T13:29:43.341Z,20.93
2019-01-03T13:32:11.935Z,22.07
2019-01-03T13:34:40.378Z,21.90
2019-01-03T13:37:09.710Z,22.60
2019-01-03T13:39:38.200Z,22.07
2019-01-03T13:42:06.671Z,22.87
2019-01-03T13:44:35.160Z,22.03
2019-01-03T13:47:04.999Z,20.93
2019-01-03T13:49:33.478Z,21.80
2019-01-03T13:52:03.184Z,19.20
2019-01-03T13:54:34.138Z,25.27
2019-01-03T13:57:03.182Z,21.90
2019-01-03T13:59:33.770Z,22.50
2019-01-03T14:02:02.381Z,23.20
2019-01-03T14:04:30.801Z,19.80
2019-01-03T14:06:59.316Z,19.93
2019-01-03T14:09:27.805Z,23.27
2019-01-03T14:11:56.574Z,19.57
2019-01-03T14:14:25.019Z,20.23
2019-01-03T14:16:53.610Z,19.93
2019-01-03T14:19:22.070Z,19.17
2019-01-03T14:21:50.514Z,19.07
2019-01-03T14:24:18.936Z,18.40
2019-01-03T14:26:47.384Z,14.13
2019-01-03T14:29:15.810Z,30.17
2019-01-03T14:31:45.853Z,17.07
2019-01-03T14:34:14.413Z,19.47
2019-01-03T14:36:44.035Z,22.50
2019-01-03T14:39:12.522Z,14.63
2019-01-03T14:41:42.534Z,16.70
2019-01-03T14:44:10.982Z,14.87
2019-01-03T14:46:39.435Z,12.20
2019-01-03T14:49:07.898Z,15.93
2019-01-03T14:51:36.438Z,17.83
2019-01-03T14:54:04.956Z,14.53
2019-01-03T14:56:33.816Z,16.00
2019-01-03T14:59:03.806Z,15.70
2019-01-03T15:01:32.982Z,16.50
2019-01-03T15:04:01.698Z,15.70
2019-01-03T15:06:30.268Z,15.90
2019-01-03T15:08:58.760Z,15.27
2019-01-03T15:11:27.300Z,21.60
2019-01-03T15:13:55.759Z,20.97
2019-01-03T15:16:24.514Z,13.83
2019-01-03T15:18:53.494Z,15.53
2019-01-03T15:21:25.096Z,18.90
2019-01-03T15:23:53.630Z,13.30
2019-01-03T15:26:23.635Z,12.53
2019-01-03T15:28:52.517Z,17.63
2019-01-03T15:31:22.054Z,11.97
2019-01-03T15:33:50.505Z,14.10
2019-01-03T15:36:19.130Z,15.80
2019-01-03T15:38:47.600Z,13.20
2019-01-03T15:41:18.719Z,17.57
2019-01-03T15:43:47.179Z,13.47
2019-01-03T15:46:15.584Z,19.90
2019-01-03T15:48:44.019Z,14.80
2019-01-03T15:51:12.457Z,9.37
2019-01-03T15:53:40.901Z,11.93
2019-01-03T15:56:10.224Z,10.67
2019-01-03T15:58:38.647Z,12.83
2019-01-03T16:01:07.729Z,10.10
2019-01-03T16:03:36.172Z,13.17
2019-01-03T16:06:04.865Z,14.83
2019-01-03T16:08:34.080Z,11.00
2019-01-03T16:11:02.553Z,15.33
2019-01-03T16:13:31.212Z,15.83
2019-01-03T16:15:59.656Z,10.50
2019-01-03T16:18:28.067Z,13.90
2019-01-03T16:20:56.486Z,9.50
2019-01-03T16:23:24.934Z,9.00
2019-01-03T16:25:53.380Z,11.37
2019-01-03T16:28:24.110Z,15.33
2019-01-03T16:30:52.556Z,14.70
2019-01-03T16:33:21.052Z,22.37
2019-01-03T16:35:49.705Z,15.97
2019-01-03T16:38:19.083Z,16.57
2019-01-03T16:40:47.511Z,13.43
2019-01-03T16:43:15.972Z,21.93
2019-01-03T16:45:44.395Z,14.80
2019-01-03T16:48:12.812Z,18.30
2019-01-03T16:50:41.231Z,19.10
2019-01-03T16:53:09.635Z,21.07
2019-01-03T16:55:38.073Z,19.07
2019-01-03T16:58:06.509Z,13.97
2019-01-03T17:00:34.955Z,17.23
2019-01-03T17:03:03.393Z,16.90
2019-01-03T17:05:32.400Z,14.53
2019-01-03T17:08:00.845Z,14.20
2019-01-03T17:10:30.520Z,13.43
2019-01-03T17:12:58.940Z,14.33
2019-01-03T17:15:27.368Z,15.87
2019-01-03T17:17:55.777Z,14.77
2019-01-03T17:20:24.199Z,13.50
2019-01-03T17:22:52.627Z,12.87
2019-01-03T17:25:22.199Z,15.17
2019-01-03T17:27:50.619Z,12.67
2019-01-03T17:30:19.040Z,14.17
2019-01-03T17:32:47.451Z,12.20
2019-01-03T17:35:15.948Z,12.50
2019-01-03T17:37:44.591Z,15.17
2019-01-03T17:40:13.265Z,16.70
2019-01-03T17:42:41.770Z,15.23
2019-01-03T17:45:11.120Z,18.17
2019-01-03T17:47:39.631Z,16.30
2019-01-03T17:50:11.914Z,16.30
2019-01-03T17:52:40.411Z,15.57
2019-01-03T17:55:08.998Z,14.47
2019-01-03T17:57:37.521Z,15.60
2019-01-03T18:00:09.230Z,15.67
2019-01-03T18:02:37.704Z,16.67
2019-01-03T18:05:06.357Z,13.17
2019-01-03T18:07:34.859Z,15.33
2019-01-03T18:10:04.250Z,15.50
2019-01-03T18:12:32.709Z,14.20
2019-01-03T18:15:01.283Z,21.40
2019-01-03T18:17:29.699Z,18.60
2019-01-03T18:19:58.121Z,21.87
2019-01-03T18:22:26.551Z,24.93
2019-01-03T18:24:55.050Z,30.27
2019-01-03T18:27:23.504Z,20.13
2019-01-03T18:29:51.937Z,22.03
2019-01-03T18:32:20.391Z,23.70
2019-01-03T18:34:48.825Z,33.47
2019-01-03T18:37:17.352Z,33.90
2019-01-03T18:39:47.831Z,21.60
2019-01-03T18:42:16.289Z,18.13
2019-01-03T18:44:44.760Z,26.20
2019-01-03T18:47:13.202Z,24.03
2019-01-03T18:49:41.625Z,25.90
2019-01-03T18:52:10.044Z,25.97
2019-01-03T18:54:38.491Z,26.97
2019-01-03T18:57:06.929Z,26.30
2019-01-03T18:59:35.384Z,20.63
2019-01-03T19:02:03.881Z,21.17
2019-01-03T19:04:32.347Z,26.27
2019-01-03T19:07:00.890Z,23.97
2019-01-03T19:09:29.388Z,21.77
2019-01-03T19:11:57.857Z,18.70
2019-01-03T19:14:26.408Z,19.60
2019-01-03T19:16:56.369Z,22.40
2019-01-03T19:19:24.835Z,24.60
2019-01-03T19:21:56.020Z,16.30
2019-01-03T19:24:24.634Z,22.00
2019-01-03T19:26:53.161Z,23.40
2019-01-03T19:29:21.681Z,23.30
2019-01-03T19:31:51.562Z,26.80
2019-01-03T19:34:20.081Z,23.10
2019-01-03T19:36:51.100Z,23.50
2019-01-03T19:39:19.589Z,23.87
2019-01-03T19:41:48.030Z,23.20
2019-01-03T19:44:16.688Z,27.17
2019-01-03T19:46:45.957Z,22.73
2019-01-03T19:49:14.441Z,17.73
2019-01-03T19:51:42.934Z,23.33
2019-01-03T19:54:11.391Z,20.37
2019-01-03T19:56:40.973Z,18.77
2019-01-03T19:59:09.430Z,19.90
2019-01-03T20:01:38.454Z,17.63
2019-01-03T20:04:06.888Z,15.10
2019-01-03T20:06:35.367Z,14.83
2019-01-03T20:09:04.554Z,17.53
2019-01-03T20:11:33.012Z,15.30
2019-01-03T20:14:01.494Z,17.13
2019-01-03T20:16:29.966Z,19.80
2019-01-03T20:18:58.547Z,14.93
2019-01-03T20:21:26.981Z,16.87
2019-01-03T20:23:55.429Z,16.20
2019-01-03T20:26:25.413Z,15.70
2019-01-03T20:28:53.823Z,16.20
2019-01-03T20:31:22.263Z,17.43
2019-01-03T20:33:51.776Z,18.07
2019-01-03T20:36:23.153Z,19.67
2019-01-03T20:38:51.623Z,19.10
2019-01-03T20:41:20.797Z,15.23
2019-01-03T20:43:49.215Z,17.13
2019-01-03T20:46:23.578Z,17.77
2019-01-03T20:48:52.032Z,19.17
2019-01-03T20:51:20.493Z,13.40
2019-01-03T20:53:48.956Z,18.17
2019-01-03T20:56:18.485Z,18.47
2019-01-03T20:58:46.928Z,19.13
2019-01-03T21:01:28.736Z,20.50
2019-01-03T21:03:57.282Z,21.00
2019-01-03T21:06:25.769Z,24.97
2019-01-03T21:08:54.206Z,23.77
2019-01-03T21:11:22.697Z,23.33
2019-01-03T21:13:51.128Z,21.27
2019-01-03T21:16:22.618Z,30.10
2019-01-03T21:18:51.092Z,24.50
2019-01-03T21:21:21.149Z,23.43
2019-01-03T21:23:49.726Z,22.60
2019-01-03T21:26:21.351Z,21.73
2019-01-03T21:28:49.878Z,27.83
2019-01-03T21:31:18.462Z,26.30
2019-01-03T21:33:46.987Z,22.57
2019-01-03T21:36:16.757Z,26.50
2019-01-03T21:38:45.534Z,22.13
2019-01-03T21:41:14.054Z,27.10
2019-01-03T21:43:42.621Z,20.67
2019-01-03T21:46:11.150Z,24.90
2019-01-03T21:48:39.702Z,24.20
2019-01-03T21:51:10.361Z,31.67
2019-01-03T21:53:39.057Z,23.27
2019-01-03T21:56:07.586Z,23.50
2019-01-03T21:58:36.277Z,22.27
2019-01-03T22:01:07.667Z,20.03
2019-01-03T22:03:36.707Z,18.63
2019-01-03T22:06:05.362Z,16.57
2019-01-03T22:08:37.284Z,15.43
2019-01-03T22:11:09.214Z,18.77
2019-01-03T22:13:37.960Z,19.30
2019-01-03T22:16:06.770Z,18.70
2019-01-03T22:18:35.340Z,18.00
2019-01-03T22:21:07.795Z,19.20
2019-01-03T22:23:37.549Z,17.10
2019-01-03T22:26:06.870Z,19.70
2019-01-03T22:28:35.522Z,19.20
2019-01-03T22:31:07.750Z,22.77
2019-01-03T22:33:36.650Z,25.60
2019-01-03T22:36:05.636Z,17.17
2019-01-03T22:38:34.250Z,14.80
2019-01-03T22:41:03.167Z,18.17
2019-01-03T22:43:34.531Z,16.07
2019-01-03T22:46:06.427Z,17.10
2019-01-03T22:48:35.696Z,17.73
2019-01-03T22:51:04.835Z,16.27
2019-01-03T22:53:34.786Z,17.83
2019-01-03T22:56:06.419Z,20.23
2019-01-03T22:58:34.955Z,23.07
2019-01-03T23:01:05.170Z,19.43
2019-01-03T23:03:34.053Z,16.07
2019-01-03T23:06:12.764Z,17.33
2019-01-03T23:08:43.061Z,17.33
2019-01-03T23:11:11.510Z,18.97
2019-01-03T23:13:39.919Z,17.87
2019-01-03T23:16:08.756Z,23.80
2019-01-03T23:18:37.211Z,23.43
2019-01-03T23:21:05.663Z,20.73
2019-01-03T23:23:34.103Z,23.47
2019-01-03T23:26:05.851Z,24.20
2019-01-03T23:28:34.310Z,20.70
2019-01-03T23:31:02.772Z,20.23
2019-01-03T23:33:31.213Z,23.67
2019-01-03T23:35:59.741Z,18.57
2019-01-03T23:38:28.138Z,27.50
2019-01-03T23:40:56.566Z,21.10
2019-01-03T23:43:26.105Z,20.63
2019-01-03T23:45:55.138Z,25.47
2019-01-03T23:48:23.684Z,21.00
2019-01-03T23:50:52.138Z,23.27
2019-01-03T23:53:20.579Z,18.17
2019-01-03T23:55:51.624Z,16.67
2019-01-03T23:58:20.061Z,24.57
